Time;durP1;ratioP1;P1;durP2;ratioP2;P2;SDS_P1;SDS_P2;PMS_P1;PMS_P2;Temp;Humidity;BMP_temperature;BMP_pressure;BME280_temperature;BME280_humidity;BME280_pressure;Samples;Min_cycle;Max_cycle;Signal;HPM_P1;HPM_P2
2024/01/19 00:01:38;;;;;;;30.13;19.10;;;;;;;-3.09;100.00;101255.03;5082997;28;20024;-73
2024/01/19 00:04:04;;;;;;;30.95;19.08;;;;;;;-3.09;100.00;101250.75;5083157;28;20040;-73
2024/01/19 00:06:29;;;;;;;29.35;19.10;;;;;;;-3.05;100.00;101262.22;5081696;28;20036;-73
2024/01/19 00:08:54;;;;;;;30.65;19.58;;;;;;;-3.00;100.00;101259.13;5082901;28;20028;-71
2024/01/19 00:11:20;;;;;;;30.55;19.38;;;;;;;-2.97;100.00;101261.03;5081450;28;20041;-72
2024/01/19 00:13:45;;;;;;;30.50;18.92;;;;;;;-2.98;100.00;101257.53;5083664;28;20115;-72
2024/01/19 00:16:10;;;;;;;29.50;19.17;;;;;;;-2.96;100.00;101273.16;5081868;28;20039;-75
2024/01/19 00:18:36;;;;;;;29.90;18.35;;;;;;;-2.94;100.00;101265.47;5083670;28;20094;-74
2024/01/19 00:21:02;;;;;;;29.30;18.33;;;;;;;-2.93;100.00;101262.09;5083343;28;20085;-73
2024/01/19 00:23:27;;;;;;;28.73;17.88;;;;;;;-2.87;100.00;101267.69;5081115;28;20119;-72
2024/01/19 00:25:52;;;;;;;27.95;17.20;;;;;;;-2.81;100.00;101269.00;5084705;28;20429;-73
2024/01/19 00:28:18;;;;;;;28.42;17.20;;;;;;;-2.81;100.00;101273.25;5081175;28;20060;-72
2024/01/19 00:30:43;;;;;;;27.90;17.02;;;;;;;-2.84;100.00;101268.78;5084672;28;20433;-73
2024/01/19 00:33:10;;;;;;;28.27;17.55;;;;;;;-2.90;100.00;101273.53;5082212;28;20441;-75
2024/01/19 00:35:35;;;;;;;28.15;16.95;;;;;;;-2.91;100.00;101276.94;5083146;28;20024;-74
2024/01/19 00:38:01;;;;;;;27.05;16.35;;;;;;;-2.96;100.00;101273.16;5065112;28;20020;-72
2024/01/19 00:40:26;;;;;;;27.73;16.38;;;;;;;-2.93;100.00;101286.28;5081264;28;20024;-74
2024/01/19 00:42:52;;;;;;;27.23;16.80;;;;;;;-2.93;100.00;101286.28;5083108;28;20061;-73
2024/01/19 00:45:17;;;;;;;28.30;15.73;;;;;;;-2.98;100.00;101285.97;5081283;28;20162;-72
2024/01/19 00:47:43;;;;;;;28.20;16.60;;;;;;;-3.02;100.00;101289.16;5084074;28;20036;-73
2024/01/19 00:50:09;;;;;;;29.23;16.77;;;;;;;-3.02;100.00;101288.28;5082045;28;20050;-73
2024/01/19 00:52:34;;;;;;;27.45;16.30;;;;;;;-3.03;100.00;101302.00;5083031;28;20137;-72
2024/01/19 00:55:00;;;;;;;29.50;16.48;;;;;;;-3.04;100.00;101297.63;5083203;28;20471;-72
2024/01/19 00:57:26;;;;;;;27.77;15.68;;;;;;;-3.07;100.00;101297.41;5081546;28;20036;-72
2024/01/19 00:59:51;;;;;;;28.38;16.17;;;;;;;-3.15;100.00;101299.50;5084483;28;20020;-74
2024/01/19 01:02:16;;;;;;;27.63;16.42;;;;;;;-3.21;100.00;101293.91;5080831;28;20029;-72
2024/01/19 01:04:42;;;;;;;28.50;15.93;;;;;;;-3.22;100.00;101292.13;5083699;28;20389;-75
2024/01/19 01:07:08;;;;;;;27.52;16.42;;;;;;;-3.18;100.00;101291.53;5081996;28;20021;-73
2024/01/19 01:09:34;;;;;;;26.73;16.08;;;;;;;-3.20;100.00;101309.53;5082735;28;20039;-73
2024/01/19 01:12:00;;;;;;;26.83;15.90;;;;;;;-3.19;100.00;101301.00;5082522;28;20547;-72
2024/01/19 01:14:26;;;;;;;28.70;16.20;;;;;;;-3.21;100.00;101296.50;5081591;28;20041;-72
2024/01/19 01:16:51;;;;;;;28.17;16.10;;;;;;;-3.14;100.00;101292.66;5084120;28;20056;-72
2024/01/19 01:19:16;;;;;;;28.77;16.30;;;;;;;-3.17;100.00;101298.50;5080540;28;20086;-73
2024/01/19 01:21:42;;;;;;;26.77;16.05;;;;;;;-3.25;100.00;101305.72;5087211;28;20028;-73
2024/01/19 01:24:07;;;;;;;28.23;15.57;;;;;;;-3.17;100.00;101307.16;5085631;28;20119;-73
2024/01/19 01:26:32;;;;;;;28.50;16.10;;;;;;;-3.12;100.00;101312.63;5086274;28;20483;-71
2024/01/19 01:28:58;;;;;;;27.13;16.00;;;;;;;-3.11;100.00;101318.72;5086918;28;20413;-71
2024/01/19 01:31:23;;;;;;;27.65;16.10;;;;;;;-3.07;100.00;101315.50;5085263;28;20131;-74
2024/01/19 01:33:49;;;;;;;26.85;15.23;;;;;;;-3.03;100.00;101313.25;5088528;28;20111;-79
2024/01/19 01:36:14;;;;;;;26.95;15.25;;;;;;;-2.99;100.00;101324.69;5085110;28;20089;-82
2024/01/19 01:38:40;;;;;;;26.90;15.63;;;;;;;-3.05;100.00;101324.28;5087512;28;20479;-83
2024/01/19 01:41:05;;;;;;;27.05;15.80;;;;;;;-3.13;100.00;101318.63;5086261;28;20028;-82
2024/01/19 01:43:31;;;;;;;26.73;14.85;;;;;;;-3.19;100.00;101319.09;5086103;28;20032;-81
2024/01/19 01:45:57;;;;;;;28.02;15.30;;;;;;;-3.31;100.00;101332.88;5087555;28;20020;-81
2024/01/19 01:48:24;;;;;;;26.48;14.82;;;;;;;-3.40;100.00;101328.88;5084657;28;20491;-79
2024/01/19 01:50:49;;;;;;;26.38;15.10;;;;;;;-3.44;100.00;101332.03;5087697;28;20021;-82
2024/01/19 01:53:18;;;;;;;27.00;15.23;;;;;;;-3.42;100.00;101327.88;5083061;28;20391;-81
2024/01/19 01:55:44;;;;;;;27.33;15.45;;;;;;;-3.46;100.00;101335.31;5087497;28;20097;-81
2024/01/19 01:58:10;;;;;;;28.58;15.60;;;;;;;-3.46;100.00;101335.31;5085060;28;20471;-78
2024/01/19 02:00:36;;;;;;;29.33;15.88;;;;;;;-3.54;100.00;101338.28;5085790;28;20028;-80
2024/01/19 02:03:02;;;;;;;26.67;15.43;;;;;;;-3.66;100.00;101342.59;5086191;28;20028;-80
2024/01/19 02:05:27;;;;;;;26.27;15.48;;;;;;;-3.79;100.00;101340.81;5084841;28;20032;-80
2024/01/19 02:07:53;;;;;;;27.52;15.80;;;;;;;-3.87;100.00;101352.34;5087363;28;20029;-82
2024/01/19 02:10:18;;;;;;;27.42;15.85;;;;;;;-3.92;100.00;101348.50;5084216;28;20104;-75
2024/01/19 02:12:44;;;;;;;27.90;16.50;;;;;;;-3.88;100.00;101346.25;5086683;28;20035;-72
2024/01/19 02:15:23;;;;;;;26.40;16.13;;;;;;;-3.91;100.00;101355.47;5084809;28;20142;-72
2024/01/19 02:17:50;;;;;;;26.02;15.55;;;;;;;-4.12;100.00;101358.34;5079957;28;20024;-72
2024/01/19 02:20:16;;;;;;;25.55;15.88;;;;;;;-4.05;100.00;101358.00;5086924;28;20023;-72
2024/01/19 02:22:47;;;;;;;28.33;15.68;;;;;;;-3.98;100.00;101369.63;5084030;28;20545;-72
2024/01/19 02:25:13;;;;;;;26.88;15.48;;;;;;;-4.05;100.00;101368.31;5086331;28;20047;-72
2024/01/19 02:27:38;;;;;;;26.52;15.00;;;;;;;-4.10;100.00;101364.50;5084396;28;20028;-72
2024/01/19 02:30:07;;;;;;;26.33;14.77;;;;;;;-3.97;100.00;101373.13;5085232;28;20037;-72
2024/01/19 02:32:32;;;;;;;24.83;13.80;;;;;;;-3.88;100.00;101366.91;5085270;28;20028;-72
2024/01/19 02:34:58;;;;;;;26.55;15.10;;;;;;;-3.89;100.00;101375.47;5084022;28;20028;-72
2024/01/19 02:37:23;;;;;;;25.17;13.27;;;;;;;-3.80;100.00;101387.22;5086439;28;20497;-73
2024/01/19 02:39:49;;;;;;;25.10;13.65;;;;;;;-3.75;100.00;101386.78;5082122;28;20047;-73
2024/01/19 02:42:14;;;;;;;25.48;13.25;;;;;;;-3.69;100.00;101384.59;5084892;28;20128;-73
2024/01/19 02:44:40;;;;;;;25.05;12.93;;;;;;;-3.51;100.00;101397.03;5083923;28;20417;-74
2024/01/19 02:47:05;;;;;;;24.58;12.80;;;;;;;-3.48;100.00;101394.69;5085043;28;20051;-74
2024/01/19 02:49:31;;;;;;;24.13;12.55;;;;;;;-3.39;100.00;101394.44;5084003;28;20073;-73
2024/01/19 02:51:56;;;;;;;25.48;13.07;;;;;;;-3.37;100.00;101403.19;5083429;28;20029;-73
2024/01/19 02:54:21;;;;;;;23.98;12.05;;;;;;;-3.31;100.00;101402.72;5086740;28;20060;-73
2024/01/19 02:56:47;;;;;;;24.88;12.20;;;;;;;-3.24;100.00;101407.50;5078931;28;20041;-73
2024/01/19 02:59:12;;;;;;;22.92;12.00;;;;;;;-3.22;100.00;101398.16;5085601;28;20063;-73
2024/01/19 03:01:37;;;;;;;24.48;12.45;;;;;;;-3.21;100.00;101405.13;5084102;28;20020;-73
2024/01/19 03:04:03;;;;;;;23.88;12.10;;;;;;;-3.16;100.00;101420.19;5084311;28;20032;-73
2024/01/19 03:06:29;;;;;;;24.42;12.73;;;;;;;-3.13;100.00;101411.75;5084119;28;20486;-73
2024/01/19 03:08:54;;;;;;;25.42;12.85;;;;;;;-3.06;100.00;101418.22;5082791;28;20480;-73
2024/01/19 03:11:19;;;;;;;24.20;13.18;;;;;;;-3.05;100.00;101413.13;5085751;28;20052;-74
2024/01/19 03:13:45;;;;;;;24.17;13.68;;;;;;;-2.99;100.00;101420.44;5082877;28;20082;-73
2024/01/19 03:16:10;;;;;;;28.15;14.88;;;;;;;-2.91;100.00;101411.50;5083678;28;20395;-73
2024/01/19 03:18:35;;;;;;;25.15;15.32;;;;;;;-2.92;100.00;101417.47;5083876;28;20046;-72
2024/01/19 03:21:01;;;;;;;26.58;15.88;;;;;;;-2.87;100.00;101415.19;5083693;28;20112;-73
2024/01/19 03:23:26;;;;;;;26.30;16.25;;;;;;;-2.86;100.00;101427.34;5085251;28;20036;-73
2024/01/19 03:25:51;;;;;;;27.25;17.25;;;;;;;-2.87;100.00;101425.53;5082186;28;20524;-73
2024/01/19 03:28:17;;;;;;;29.73;18.27;;;;;;;-2.77;100.00;101427.06;5086354;28;20114;-75
2024/01/19 03:30:42;;;;;;;29.33;19.10;;;;;;;-2.77;100.00;101429.66;5082669;28;20391;-76
2024/01/19 03:33:08;;;;;;;28.65;19.92;;;;;;;-2.75;100.00;101430.63;5084145;28;20114;-73
2024/01/19 03:35:34;;;;;;;29.00;19.85;;;;;;;-2.73;100.00;101429.06;5084066;28;20115;-75
2024/01/19 03:37:59;;;;;;;31.33;20.85;;;;;;;-2.70;100.00;101426.69;5082826;28;20040;-74
2024/01/19 03:40:24;;;;;;;30.30;21.15;;;;;;;-2.71;100.00;101432.66;5085213;28;20031;-75
2024/01/19 03:42:50;;;;;;;32.45;22.20;;;;;;;-2.66;100.00;101426.09;5081401;28;20361;-75
2024/01/19 03:45:15;;;;;;;31.17;21.92;;;;;;;-2.70;100.00;101426.69;5085018;28;20390;-77
2024/01/19 03:47:41;;;;;;;31.20;22.15;;;;;;;-2.72;100.00;101438.59;5082853;28;20059;-82
2024/01/19 03:50:08;;;;;;;31.35;21.63;;;;;;;-2.75;100.00;101436.72;5083772;28;20491;-81
2024/01/19 03:52:34;;;;;;;32.45;22.38;;;;;;;-2.70;100.00;101435.34;5083667;28;20028;-81
2024/01/19 03:55:00;;;;;;;32.97;22.90;;;;;;;-2.63;100.00;101434.06;5082688;28;20526;-79
2024/01/19 03:57:25;;;;;;;31.83;23.05;;;;;;;-2.63;100.00;101447.00;5083410;28;20066;-80
2024/01/19 03:59:51;;;;;;;31.13;22.83;;;;;;;-2.62;100.00;101438.47;5081527;28;20123;-82
2024/01/19 04:02:16;;;;;;;32.30;22.98;;;;;;;-2.66;100.00;101442.53;5085057;28;20036;-81
2024/01/19 04:04:41;;;;;;;33.78;23.73;;;;;;;-2.69;100.00;101444.03;5082162;28;20040;-81
2024/01/19 04:07:07;;;;;;;32.40;22.95;;;;;;;-2.74;100.00;101441.09;5083351;28;20056;-80
2024/01/19 04:09:32;;;;;;;32.97;24.02;;;;;;;-2.73;100.00;101442.91;5083689;28;20028;-73
2024/01/19 04:11:58;;;;;;;30.77;22.65;;;;;;;-2.86;100.00;101446.34;5081872;28;20487;-73
2024/01/19 04:14:24;;;;;;;31.25;22.98;;;;;;;-2.86;100.00;101445.47;5084643;28;20020;-74
2024/01/19 04:16:49;;;;;;;31.77;23.30;;;;;;;-2.91;100.00;101452.00;5081520;28;20480;-77
2024/01/19 04:19:14;;;;;;;32.38;23.27;;;;;;;-2.90;100.00;101453.78;5084163;28;20459;-73
2024/01/19 04:21:40;;;;;;;31.70;23.50;;;;;;;-2.89;100.00;101453.91;5082358;28;20032;-73
2024/01/19 04:24:05;;;;;;;31.45;23.58;;;;;;;-2.92;100.00;101463.16;5083118;28;20025;-75
2024/01/19 04:26:30;;;;;;;32.78;23.55;;;;;;;-2.98;100.00;101461.03;5083493;28;20114;-73
2024/01/19 04:28:56;;;;;;;32.10;23.02;;;;;;;-2.96;100.00;101469.78;5081719;28;20024;-75
2024/01/19 04:31:22;;;;;;;32.72;24.02;;;;;;;-3.01;100.00;101466.00;5084514;28;20363;-76
2024/01/19 04:33:47;;;;;;;31.67;23.75;;;;;;;-3.01;100.00;101478.94;5081155;28;20032;-75
2024/01/19 04:36:12;;;;;;;32.78;24.48;;;;;;;-2.99;100.00;101477.34;5084022;28;20406;-74
2024/01/19 04:38:38;;;;;;;32.92;23.88;;;;;;;-3.00;100.00;101479.06;5082528;28;20070;-75
2024/01/19 04:41:04;;;;;;;34.00;24.67;;;;;;;-2.95;100.00;101474.19;5082776;28;20032;-73
2024/01/19 04:43:30;;;;;;;32.25;24.45;;;;;;;-2.95;100.00;101491.41;5083913;28;20391;-73
2024/01/19 04:45:55;;;;;;;33.00;24.15;;;;;;;-2.97;100.00;101491.31;5079921;28;20053;-72
2024/01/19 04:48:21;;;;;;;33.67;24.23;;;;;;;-3.00;100.00;101499.75;5084773;28;20107;-82
2024/01/19 04:50:46;;;;;;;32.25;24.40;;;;;;;-2.99;100.00;101503.22;5081973;28;20405;-75
2024/01/19 04:53:12;;;;;;;32.53;25.02;;;;;;;-3.03;100.00;101502.13;5083613;28;20033;-76
2024/01/19 04:55:37;;;;;;;32.40;24.92;;;;;;;-3.06;100.00;101506.19;5084329;28;20065;-77
2024/01/19 04:58:03;;;;;;;32.10;24.70;;;;;;;-3.04;100.00;101507.19;5087084;28;20029;-75
2024/01/19 05:00:28;;;;;;;33.78;25.35;;;;;;;-3.09;100.00;101509.44;5087932;28;20035;-75
2024/01/19 05:02:54;;;;;;;33.38;25.73;;;;;;;-3.06;100.00;101509.69;5085430;28;20028;-75
2024/01/19 05:05:19;;;;;;;32.38;24.45;;;;;;;-3.02;100.00;101510.78;5088480;28;20114;-78
2024/01/19 05:07:44;;;;;;;33.25;24.77;;;;;;;-3.11;100.00;101508.44;5085459;28;20111;-79
2024/01/19 05:10:10;;;;;;;32.88;24.75;;;;;;;-3.07;100.00;101515.63;5087677;28;20039;-78
2024/01/19 05:12:36;;;;;;;34.40;25.58;;;;;;;-3.12;100.00;101508.34;5086454;28;20052;-76
2024/01/19 05:15:02;;;;;;;32.80;25.08;;;;;;;-3.13;100.00;101514.28;5085892;28;20033;-78
2024/01/19 05:17:27;;;;;;;33.83;25.70;;;;;;;-3.19;100.00;101517.34;5088012;28;20027;-77
2024/01/19 05:19:52;;;;;;;33.22;25.77;;;;;;;-3.19;100.00;101515.69;5084873;28;20044;-76
2024/01/19 05:22:18;;;;;;;31.77;25.35;;;;;;;-3.22;100.00;101523.22;5088121;28;20039;-75
2024/01/19 05:24:44;;;;;;;33.20;25.75;;;;;;;-3.19;100.00;101523.44;5085387;28;20041;-76
2024/01/19 05:27:10;;;;;;;32.75;25.27;;;;;;;-3.24;100.00;101526.47;5086670;28;20040;-73
2024/01/19 05:29:35;;;;;;;34.58;25.70;;;;;;;-3.24;100.00;101531.66;5086172;28;20501;-74
2024/01/19 05:32:01;;;;;;;34.25;25.30;;;;;;;-3.30;100.00;101539.88;5085523;28;20033;-72
2024/01/19 05:34:27;;;;;;;33.17;25.20;;;;;;;-3.26;100.00;101540.97;5087383;28;20415;-76
2024/01/19 05:36:53;;;;;;;33.65;25.98;;;;;;;-3.25;100.00;101541.09;5084285;28;20142;-73
2024/01/19 05:39:18;;;;;;;33.65;26.08;;;;;;;-3.25;100.00;101540.19;5086578;28;20111;-73
2024/01/19 05:41:43;;;;;;;35.13;26.35;;;;;;;-3.21;100.00;101556.03;5084893;28;20033;-72
2024/01/19 05:44:09;;;;;;;31.95;25.98;;;;;;;-3.25;100.00;101564.38;5086303;28;20032;-72
2024/01/19 05:46:34;;;;;;;32.15;25.38;;;;;;;-3.25;100.00;101566.06;5084855;28;20055;-72
2024/01/19 05:48:59;;;;;;;33.08;26.42;;;;;;;-3.24;100.00;101579.09;5084534;28;20040;-79
2024/01/19 05:51:25;;;;;;;35.22;26.17;;;;;;;-3.29;100.00;101583.06;5084461;28;20033;-80
2024/01/19 05:53:50;;;;;;;34.35;26.33;;;;;;;-3.20;100.00;101588.00;5088338;28;20039;-80
2024/01/19 05:56:15;;;;;;;34.95;26.48;;;;;;;-3.19;100.00;101593.28;5084041;28;20097;-76
2024/01/19 05:58:41;;;;;;;34.35;26.38;;;;;;;-3.09;100.00;101596.50;5086727;28;20035;-74
2024/01/19 06:01:06;;;;;;;33.75;26.63;;;;;;;-3.02;100.00;101609.09;5085696;28;20115;-75
2024/01/19 06:03:35;;;;;;;32.42;26.17;;;;;;;-3.00;100.00;101605.84;5083764;28;20032;-72
2024/01/19 06:06:01;;;;;;;31.75;25.63;;;;;;;-2.93;100.00;101620.09;5085997;28;20029;-72
2024/01/19 06:08:27;;;;;;;33.05;26.25;;;;;;;-2.90;100.00;101614.25;5084213;28;20040;-72
2024/01/19 06:10:53;;;;;;;32.08;25.15;;;;;;;-2.86;100.00;101621.44;5087189;28;20039;-71
2024/01/19 06:13:18;;;;;;;32.47;25.55;;;;;;;-2.84;100.00;101631.13;5083712;28;20382;-71
2024/01/19 06:15:43;;;;;;;32.28;25.30;;;;;;;-2.83;100.00;101627.72;5086203;28;20055;-72
2024/01/19 06:18:09;;;;;;;32.58;25.83;;;;;;;-2.82;100.00;101634.69;5084927;28;20494;-71
2024/01/19 06:20:39;;;;;;;32.33;25.40;;;;;;;-2.85;100.00;101639.66;5083922;28;20033;-72
2024/01/19 06:23:04;;;;;;;32.05;25.30;;;;;;;-2.85;100.00;101644.84;5085577;28;20020;-71
2024/01/19 06:25:29;;;;;;;32.08;25.13;;;;;;;-2.85;100.00;101644.84;5084011;28;20041;-72
2024/01/19 06:27:57;;;;;;;34.80;26.50;;;;;;;-2.84;100.00;101649.22;5086948;28;20032;-75
2024/01/19 06:30:22;;;;;;;32.92;25.63;;;;;;;-2.83;100.00;101650.13;5082047;28;20664;-72
2024/01/19 06:32:47;;;;;;;33.22;25.77;;;;;;;-2.83;100.00;101652.72;5086377;28;20117;-73
2024/01/19 06:35:13;;;;;;;32.95;25.50;;;;;;;-2.85;100.00;101664.66;5084205;28;20352;-71
2024/01/19 06:37:39;;;;;;;31.17;24.90;;;;;;;-2.94;100.00;101669.16;5085122;28;20016;-72
2024/01/19 06:40:06;;;;;;;31.85;23.85;;;;;;;-3.03;100.00;101684.91;5084160;28;20386;-72
2024/01/19 06:42:32;;;;;;;29.85;23.60;;;;;;;-3.13;100.00;101677.28;5082979;28;20029;-72
2024/01/19 06:44:57;;;;;;;31.52;24.58;;;;;;;-3.17;100.00;101691.69;5085977;28;20042;-73
2024/01/19 06:47:22;;;;;;;32.58;24.85;;;;;;;-3.21;100.00;101693.13;5083147;28;20079;-72
2024/01/19 06:49:48;;;;;;;32.38;24.25;;;;;;;-3.28;100.00;101677.06;5084888;28;20070;-72
2024/01/19 06:52:14;;;;;;;31.80;24.52;;;;;;;-3.29;100.00;101667.50;5083606;28;20399;-71
2024/01/19 06:54:39;;;;;;;32.25;25.10;;;;;;;-3.30;100.00;101679.53;5084067;28;20071;-73
2024/01/19 06:57:05;;;;;;;31.98;24.88;;;;;;;-3.34;100.00;101685.25;5084783;28;20023;-71
2024/01/19 06:59:32;;;;;;;32.63;25.17;;;;;;;-3.33;100.00;101695.72;5083466;28;20032;-71
2024/01/19 07:01:57;;;;;;;32.13;25.65;;;;;;;-3.36;100.00;101699.78;5085991;28;20053;-72
2024/01/19 07:04:23;;;;;;;32.65;25.33;;;;;;;-3.39;100.00;101702.13;5082560;28;20037;-71
2024/01/19 07:06:48;;;;;;;31.63;25.40;;;;;;;-3.40;100.00;101713.25;5085781;28;20127;-75
2024/01/19 07:09:13;;;;;;;33.53;25.45;;;;;;;-3.44;100.00;101706.03;5083523;28;20036;-71
2024/01/19 07:11:39;;;;;;;32.50;25.63;;;;;;;-3.49;100.00;101703.13;5084226;28;20037;-71
2024/01/19 07:14:04;;;;;;;32.58;26.25;;;;;;;-3.51;100.00;101708.19;5084602;28;20028;-71
2024/01/19 07:16:30;;;;;;;33.08;26.73;;;;;;;-3.50;100.00;101719.41;5083269;28;20035;-71
2024/01/19 07:18:55;;;;;;;33.85;26.58;;;;;;;-3.48;100.00;101727.28;5084940;28;20110;-71
2024/01/19 07:21:20;;;;;;;33.60;26.67;;;;;;;-3.55;100.00;101734.59;5082607;28;20024;-72
2024/01/19 07:23:46;;;;;;;31.63;25.83;;;;;;;-3.61;100.00;101744.47;5085106;28;20043;-73
2024/01/19 07:26:11;;;;;;;33.70;27.50;;;;;;;-3.57;100.00;101738.75;5083510;28;20111;-72
2024/01/19 07:28:36;;;;;;;33.35;27.25;;;;;;;-3.57;100.00;101740.41;5084064;28;20102;-71
2024/01/19 07:31:02;;;;;;;34.67;27.73;;;;;;;-3.58;100.00;101734.38;5084689;28;20103;-75
2024/01/19 07:33:28;;;;;;;36.88;27.70;;;;;;;-3.63;100.00;101740.84;5082241;28;20029;-73
2024/01/19 07:35:54;;;;;;;34.17;27.40;;;;;;;-3.62;100.00;101737.50;5085743;28;20052;-73
2024/01/19 07:38:19;;;;;;;33.92;27.58;;;;;;;-3.62;100.00;101741.78;5082472;28;20074;-76
2024/01/19 07:40:44;;;;;;;33.90;26.48;;;;;;;-3.63;100.00;101740.84;5085037;28;20451;-78
2024/01/19 07:43:10;;;;;;;33.35;27.33;;;;;;;-3.62;100.00;101742.66;5083590;28;20036;-72
2024/01/19 07:45:35;;;;;;;33.17;27.25;;;;;;;-3.63;100.00;101753.78;5083341;28;20114;-71
2024/01/19 07:48:01;;;;;;;34.85;27.17;;;;;;;-3.65;100.00;101754.47;5085222;28;20074;-74
2024/01/19 07:50:26;;;;;;;34.95;27.70;;;;;;;-3.66;100.00;101750.97;5082550;28;20034;-79
2024/01/19 07:52:51;;;;;;;34.30;27.33;;;;;;;-3.69;100.00;101756.78;5079128;28;20108;-76
2024/01/19 07:55:17;;;;;;;36.50;27.10;;;;;;;-3.68;100.00;101768.94;5083745;28;20042;-77
2024/01/19 07:57:42;;;;;;;34.38;28.05;;;;;;;-3.62;100.00;101768.50;5082866;28;20121;-76
2024/01/19 08:00:08;;;;;;;35.63;27.23;;;;;;;-3.56;100.00;101771.56;5081278;28;20383;-78
2024/01/19 08:02:34;;;;;;;35.63;27.77;;;;;;;-3.43;100.00;101775.09;5085321;28;20036;-77
2024/01/19 08:04:59;;;;;;;36.60;28.33;;;;;;;-3.36;100.00;101785.13;5081551;28;20112;-74
2024/01/19 08:07:26;;;;;;;38.45;28.52;;;;;;;-3.28;100.00;101786.56;5083091;28;20390;-72
2024/01/19 08:09:52;;;;;;;39.25;28.73;;;;;;;-3.19;100.00;101789.88;5082314;28;20052;-75
2024/01/19 08:12:18;;;;;;;41.33;28.88;;;;;;;-3.18;100.00;101793.34;5083217;28;20098;-72
2024/01/19 08:14:43;;;;;;;40.10;29.50;;;;;;;-3.17;100.00;101795.16;5083431;28;20394;-72
2024/01/19 08:17:09;;;;;;;40.35;29.33;;;;;;;-3.19;100.00;101788.94;5082466;28;20079;-73
2024/01/19 08:19:34;;;;;;;40.58;30.25;;;;;;;-3.19;100.00;101805.38;5084558;28;20020;-75
2024/01/19 08:22:00;;;;;;;42.42;30.25;;;;;;;-3.17;100.00;101813.25;5080159;28;20024;-74
2024/01/19 08:24:26;;;;;;;38.95;30.08;;;;;;;-3.10;100.00;101817.19;5083329;28;20040;-71
2024/01/19 08:26:51;;;;;;;37.28;28.90;;;;;;;-3.08;100.00;101807.88;5082197;28;20039;-72
2024/01/19 08:29:17;;;;;;;37.67;28.15;;;;;;;-3.01;100.00;101817.91;5082775;28;20025;-71
2024/01/19 08:31:43;;;;;;;37.00;27.65;;;;;;;-2.94;100.00;101808.88;5083534;28;20475;-72
2024/01/19 08:34:11;;;;;;;34.53;26.05;;;;;;;-2.89;100.00;101813.63;5081784;28;20043;-72
2024/01/19 08:36:41;;;;;;;32.28;25.20;;;;;;;-2.84;100.00;101816.53;5083935;28;20039;-72
2024/01/19 08:39:07;;;;;;;31.30;24.35;;;;;;;-2.74;100.00;101818.13;5081775;28;20021;-72
2024/01/19 08:41:40;;;;;;;31.83;23.67;;;;;;;-2.66;100.00;101832.56;5083244;28;20030;-71
2024/01/19 08:44:06;;;;;;;30.75;22.30;;;;;;;-2.56;100.00;101823.75;5077867;28;20033;-72
2024/01/19 08:46:31;;;;;;;27.58;20.10;;;;;;;-2.43;100.00;101825.53;5084595;28;20047;-72
2024/01/19 08:48:56;;;;;;;28.42;20.00;;;;;;;-2.31;100.00;101821.28;5080014;28;20036;-72
2024/01/19 08:51:22;;;;;;;26.48;17.70;;;;;;;-2.18;100.00;101826.53;5082078;28;20119;-72
2024/01/19 08:53:47;;;;;;;27.35;17.83;;;;;;;-2.02;100.00;101830.22;5082654;28;20360;-72
2024/01/19 08:56:19;;;;;;;26.25;16.00;;;;;;;-1.88;100.00;101832.06;5081977;28;20051;-73
2024/01/19 08:58:44;;;;;;;26.80;15.73;;;;;;;-1.66;100.00;101833.59;5082965;28;20064;-73
2024/01/19 09:01:18;;;;;;;26.02;15.30;;;;;;;-1.55;100.00;101834.34;5081804;28;20426;-73
2024/01/19 09:03:44;;;;;;;25.02;14.02;;;;;;;-1.39;100.00;101844.09;5082949;28;20024;-74
2024/01/19 09:06:09;;;;;;;23.95;13.20;;;;;;;-1.30;100.00;101842.09;5081374;28;20017;-73
2024/01/19 09:08:34;;;;;;;23.95;13.00;;;;;;;-1.19;100.00;101855.78;5084329;28;20105;-74
2024/01/19 09:11:00;;;;;;;24.92;12.63;;;;;;;-1.09;100.00;101851.34;5081051;28;20025;-73
2024/01/19 09:13:25;;;;;;;22.45;12.10;;;;;;;-0.87;100.00;101858.00;5083470;28;20048;-73
2024/01/19 09:15:53;;;;;;;21.88;11.60;;;;;;;-0.68;100.00;101854.00;5082068;28;20033;-73
2024/01/19 09:18:19;;;;;;;22.35;11.40;;;;;;;-0.61;100.00;101857.13;5065058;28;20021;-73
2024/01/19 09:20:45;;;;;;;23.88;11.13;;;;;;;-0.44;100.00;101863.41;5082528;28;20032;-73
2024/01/19 09:23:10;;;;;;;22.98;11.20;;;;;;;-0.33;100.00;101871.91;5081689;28;20033;-73
2024/01/19 09:25:36;;;;;;;22.17;10.50;;;;;;;-0.17;100.00;101873.81;5083825;28;20060;-73
2024/01/19 09:28:02;;;;;;;21.45;10.15;;;;;;;-0.02;100.00;101873.88;5079261;28;20426;-74
2024/01/19 09:30:27;;;;;;;21.23;10.32;;;;;;;0.13;100.00;101879.16;5083917;28;20032;-74
2024/01/19 09:32:53;;;;;;;23.08;10.00;;;;;;;0.33;100.00;101881.28;5081279;28;20103;-73
2024/01/19 09:35:18;;;;;;;20.70;9.43;;;;;;;0.52;100.00;101885.97;5082331;28;20035;-73
2024/01/19 09:37:43;;;;;;;21.23;9.75;;;;;;;0.61;100.00;101888.22;5082930;28;20073;-73
2024/01/19 09:40:09;;;;;;;20.52;9.70;;;;;;;0.77;100.00;101886.53;5080951;28;20037;-73
2024/01/19 09:42:36;;;;;;;20.52;9.48;;;;;;;0.92;100.00;101887.50;5087004;28;20024;-73
2024/01/19 09:45:07;;;;;;;21.15;9.90;;;;;;;0.93;100.00;101904.00;5084431;28;20545;-73
2024/01/19 09:47:51;;;;;;;21.42;9.32;;;;;;;0.99;100.00;101897.47;5080518;28;20028;-73
2024/01/19 09:50:25;;;;;;;21.95;9.43;;;;;;;1.14;100.00;101894.88;5084094;28;20071;-73
2024/01/19 09:52:58;;;;;;;21.88;10.00;;;;;;;1.24;100.00;101904.13;5085962;28;20107;-77
2024/01/19 09:55:26;;;;;;;21.20;9.63;;;;;;;1.30;100.00;101901.00;5086110;28;20029;-78
2024/01/19 09:57:52;;;;;;;20.92;9.52;;;;;;;1.45;100.00;101914.91;5085274;28;20032;-77
2024/01/19 10:00:19;;;;;;;20.75;9.35;;;;;;;1.61;100.00;101924.53;5086288;28;20437;-77
2024/01/19 10:02:49;;;;;;;21.58;9.68;;;;;;;1.81;100.00;101916.97;5087088;28;20517;-77
2024/01/19 10:05:16;;;;;;;21.35;9.23;;;;;;;1.89;100.00;101924.41;5086356;28;20090;-77
2024/01/19 10:07:44;;;;;;;21.25;9.00;;;;;;;2.08;100.00;101939.41;5087511;28;20052;-77
2024/01/19 10:10:11;;;;;;;20.25;8.98;;;;;;;2.31;100.00;101931.94;5085287;28;20047;-76
2024/01/19 10:12:38;;;;;;;21.55;9.00;;;;;;;2.45;100.00;101940.53;5087749;28;20409;-78
2024/01/19 10:15:06;;;;;;;22.63;9.05;;;;;;;2.72;100.00;101935.94;5084920;28;20044;-78
2024/01/19 10:17:31;;;;;;;22.02;9.18;;;;;;;3.04;100.00;101939.31;5080748;28;20512;-77
2024/01/19 10:19:58;;;;;;;20.38;8.45;;;;;;;3.34;100.00;101933.91;5087371;28;20031;-78
2024/01/19 10:22:28;;;;;;;20.83;8.40;;;;;;;3.60;100.00;101930.00;5085639;28;20028;-77
2024/01/19 10:25:04;;;;;;;20.00;8.50;;;;;;;3.69;100.00;101932.16;5086662;28;20036;-76
2024/01/19 10:27:50;;;;;;;20.75;8.27;;;;;;;3.60;100.00;101937.84;5083815;28;20028;-75
2024/01/19 10:30:27;;;;;;;21.02;8.73;;;;;;;3.56;100.00;101942.84;5082934;28;20031;-75
2024/01/19 10:33:02;;;;;;;20.80;8.75;;;;;;;4.04;100.00;101927.75;5083669;28;20502;-74
2024/01/19 10:35:28;;;;;;;20.00;8.38;;;;;;;4.32;100.00;101931.69;5086997;28;20032;-74
2024/01/19 10:38:03;;;;;;;20.67;8.40;;;;;;;4.38;100.00;101937.22;5084294;28;20039;-74
2024/01/19 10:40:30;;;;;;;21.45;8.40;;;;;;;4.49;100.00;101938.63;5086714;28;20028;-74
2024/01/19 10:42:56;;;;;;;20.20;8.25;;;;;;;4.54;100.00;101939.75;5083972;28;20115;-75
2024/01/19 10:45:29;;;;;;;20.05;8.13;;;;;;;4.93;100.00;101937.97;5085328;28;20186;-74
2024/01/19 10:47:58;;;;;;;19.92;7.63;;;;;;;5.51;100.00;101934.38;5084059;28;20513;-74
2024/01/19 10:50:28;;;;;;;20.10;7.88;;;;;;;5.61;100.00;101940.88;5085768;28;20032;-74
2024/01/19 10:52:55;;;;;;;19.55;7.70;;;;;;;5.57;100.00;101943.38;5083236;28;20028;-74
2024/01/19 10:55:21;;;;;;;19.90;7.50;;;;;;;5.37;100.00;101939.94;5085204;28;20025;-76
2024/01/19 10:57:56;;;;;;;20.30;8.10;;;;;;;5.41;100.00;101943.56;5084917;28;20028;-77
2024/01/19 11:00:25;;;;;;;20.45;7.90;;;;;;;6.14;100.00;101936.97;5085658;28;20020;-77